METAR Data
IDs: Format: Raw Decoded Include TAF

Data at: 0115 UTC 20 Jul 2019

METAR for:KOTM (Ottumwa Industrial, IA, US)
Text:KOTM 200053Z AUTO 20009KT 10SM CLR 32/25 A2974 RMK AO2 SLP062 T03170250
Temperature: 31.7°C ( 89°F)
Dewpoint: 25.0°C ( 77°F) [RH = 68%]
Pressure (altimeter):29.74 inches Hg (1007.2 mb) [Sea level pressure: 1006.2 mb]
Winds:from the SSW (200 degrees) at 10 MPH (9 knots; 4.6 m/s)
Visibility:10 or more sm (16+ km)
Ceiling:at least 12,000 feet AGL
Clouds:sky clear below 12,000 feet AGL
QC Flag:automated observation with no human augmentation